Time;durP1;ratioP1;P1;durP2;ratioP2;P2;SDS_P1;SDS_P2;PMS_P1;PMS_P2;Temp;Humidity;BMP_temperature;BMP_pressure;BME280_temperature;BME280_humidity;BME280_pressure;Samples;Min_cycle;Max_cycle;Signal;HPM_P1;HPM_P2
2024/01/24 00:02:13;;;;;;;1.20;0.47;;;;;;;;;;4957626;29;20570;-80
2024/01/24 00:04:39;;;;;;;1.93;0.73;;;;;;;;;;4910035;28;20463;-80
2024/01/24 00:07:05;;;;;;;1.57;0.60;;;;;;;;;;4953298;29;20433;-80
2024/01/24 00:09:33;;;;;;;2.07;0.40;;;;;;;;;;4953886;29;20436;-80
2024/01/24 00:12:02;;;;;;;2.10;0.93;;;;;;;;;;4942986;29;20459;-81
2024/01/24 00:14:28;;;;;;;2.10;1.00;;;;;;;;;;4958169;28;20892;-81
2024/01/24 00:16:53;;;;;;;2.10;0.63;;;;;;;;;;4957888;28;20467;-81
2024/01/24 00:19:19;;;;;;;4.63;2.30;;;;;;;;;;4958202;28;20420;-80
2024/01/24 00:21:45;;;;;;;3.93;1.20;;;;;;;;;;4949700;28;20535;-80
2024/01/24 00:24:12;;;;;;;1.90;1.23;;;;;;;;;;4957385;29;20483;-79
2024/01/24 00:26:38;;;;;;;3.20;1.70;;;;;;;;;;4957602;28;20424;-79
2024/01/24 00:29:04;;;;;;;2.80;1.23;;;;;;;;;;4948722;29;20567;-79
2024/01/24 00:31:30;;;;;;;2.67;1.43;;;;;;;;;;4950034;29;20774;-80
2024/01/24 00:33:55;;;;;;;5.00;2.20;;;;;;;;;;4957551;28;20528;-81
2024/01/24 00:36:23;;;;;;;3.63;1.70;;;;;;;;;;4956075;29;20467;-80
2024/01/24 00:38:49;;;;;;;3.50;2.47;;;;;;;;;;4957468;28;20420;-81
2024/01/24 00:41:15;;;;;;;4.07;2.00;;;;;;;;;;4957239;29;21027;-80
2024/01/24 00:43:41;;;;;;;3.13;1.93;;;;;;;;;;4957510;28;20421;-79
2024/01/24 00:46:07;;;;;;;5.30;2.70;;;;;;;;;;4957464;28;20512;-82
2024/01/24 00:48:33;;;;;;;5.50;2.60;;;;;;;;;;4956017;29;20515;-82
2024/01/24 00:50:59;;;;;;;5.40;3.47;;;;;;;;;;4956840;29;20917;-80
2024/01/24 00:53:26;;;;;;;6.13;4.00;;;;;;;;;;4957257;28;20517;-82
2024/01/24 00:55:52;;;;;;;5.50;4.07;;;;;;;;;;4957368;29;20922;-79
2024/01/24 00:58:19;;;;;;;5.83;3.37;;;;;;;;;;4956902;28;20421;-80
2024/01/24 01:00:48;;;;;;;5.17;4.00;;;;;;;;;;4957046;28;20421;-79
2024/01/24 01:03:14;;;;;;;4.10;2.80;;;;;;;;;;4955326;28;20437;-80
2024/01/24 01:05:46;;;;;;;5.73;3.63;;;;;;;;;;4956769;29;20519;-79
2024/01/24 01:08:12;;;;;;;5.80;3.37;;;;;;;;;;4956950;29;20429;-81
2024/01/24 01:10:37;;;;;;;6.57;3.67;;;;;;;;;;4956802;29;20782;-82
2024/01/24 01:13:03;;;;;;;5.90;3.30;;;;;;;;;;4956971;28;20933;-81
2024/01/24 01:15:29;;;;;;;5.97;3.40;;;;;;;;;;4955598;29;20646;-79
2024/01/24 01:17:55;;;;;;;9.13;3.57;;;;;;;;;;4956717;28;20473;-80
2024/01/24 01:20:21;;;;;;;5.40;3.00;;;;;;;;;;4956501;28;20435;-81
2024/01/24 01:22:47;;;;;;;5.10;3.03;;;;;;;;;;4955386;29;20997;-80
2024/01/24 01:25:13;;;;;;;5.77;3.10;;;;;;;;;;4956623;28;20424;-80
2024/01/24 01:27:39;;;;;;;5.33;3.03;;;;;;;;;;4956663;29;20187;-81
2024/01/24 01:30:06;;;;;;;5.67;3.27;;;;;;;;;;4951858;28;20410;-79
2024/01/24 01:32:32;;;;;;;5.40;3.30;;;;;;;;;;4903775;29;20990;-83
2024/01/24 01:34:59;;;;;;;6.07;3.17;;;;;;;;;;4955402;29;20429;-80
2024/01/24 01:37:25;;;;;;;4.13;2.97;;;;;;;;;;4956418;29;20426;-79
2024/01/24 01:39:51;;;;;;;6.17;3.70;;;;;;;;;;4956395;28;20417;-81
2024/01/24 01:42:17;;;;;;;4.67;3.03;;;;;;;;;;4956313;28;20478;-80
2024/01/24 01:44:48;;;;;;;4.97;3.03;;;;;;;;;;4956434;29;20409;-80
2024/01/24 01:47:15;;;;;;;4.40;2.10;;;;;;;;;;4956184;28;20508;-80
2024/01/24 01:49:43;;;;;;;4.63;2.10;;;;;;;;;;4955864;28;20460;-79
2024/01/24 01:52:09;;;;;;;3.57;2.43;;;;;;;;;;4956151;29;20915;-79
2024/01/24 01:54:35;;;;;;;4.90;2.80;;;;;;;;;;4956025;29;20768;-81
2024/01/24 01:57:02;;;;;;;4.83;2.70;;;;;;;;;;4956099;29;20432;-79
2024/01/24 01:59:28;;;;;;;6.20;2.13;;;;;;;;;;4956127;28;20410;-78
2024/01/24 02:01:59;;;;;;;4.00;2.10;;;;;;;;;;4955959;29;20468;-81
2024/01/24 02:04:28;;;;;;;1.97;0.90;;;;;;;;;;4955968;28;20421;-80
2024/01/24 02:06:55;;;;;;;3.10;2.17;;;;;;;;;;4955010;29;20409;-80
2024/01/24 02:09:21;;;;;;;3.13;1.37;;;;;;;;;;4954566;29;20911;-80
2024/01/24 02:11:47;;;;;;;4.90;1.87;;;;;;;;;;4955905;28;20411;-81
2024/01/24 02:14:13;;;;;;;3.53;1.50;;;;;;;;;;4955158;28;20496;-79
2024/01/24 02:16:39;;;;;;;2.67;1.30;;;;;;;;;;4955510;28;20474;-80
2024/01/24 02:19:06;;;;;;;3.90;1.37;;;;;;;;;;4955557;29;20464;-79
2024/01/24 02:21:38;;;;;;;2.43;1.50;;;;;;;;;;4954433;28;20497;-80
2024/01/24 02:24:08;;;;;;;2.97;0.97;;;;;;;;;;4955643;29;20429;-80
2024/01/24 02:26:34;;;;;;;4.07;1.30;;;;;;;;;;4954397;29;20869;-82
2024/01/24 02:29:00;;;;;;;3.80;1.23;;;;;;;;;;4955605;29;20542;-79
2024/01/24 02:31:25;;;;;;;2.73;0.80;;;;;;;;;;4955015;29;20525;-81
2024/01/24 02:33:51;;;;;;;2.43;1.20;;;;;;;;;;4955992;28;20428;-81
2024/01/24 02:36:17;;;;;;;2.63;1.40;;;;;;;;;;4955231;28;20526;-80
2024/01/24 02:38:43;;;;;;;2.87;0.80;;;;;;;;;;4950943;28;20183;-81
2024/01/24 02:41:09;;;;;;;2.17;0.83;;;;;;;;;;4955491;29;20418;-78
2024/01/24 02:43:35;;;;;;;3.57;1.20;;;;;;;;;;4955502;29;20418;-81
2024/01/24 02:46:01;;;;;;;1.57;0.70;;;;;;;;;;4955583;29;20902;-84
2024/01/24 02:48:27;;;;;;;3.80;0.90;;;;;;;;;;4955376;28;20441;-81
2024/01/24 02:50:53;;;;;;;2.67;0.50;;;;;;;;;;4955034;29;20422;-78
2024/01/24 02:53:19;;;;;;;2.47;0.80;;;;;;;;;;4955299;28;20436;-78
2024/01/24 02:55:46;;;;;;;1.97;1.00;;;;;;;;;;4943538;28;20447;-79
2024/01/24 02:58:12;;;;;;;1.53;0.50;;;;;;;;;;4931087;29;20433;-79
2024/01/24 03:00:38;;;;;;;3.40;0.60;;;;;;;;;;4955236;28;20817;-79
2024/01/24 03:03:04;;;;;;;2.00;0.50;;;;;;;;;;4954800;29;20479;-80
2024/01/24 03:05:30;;;;;;;1.27;0.73;;;;;;;;;;4954821;29;20457;-80
2024/01/24 03:07:59;;;;;;;1.53;0.67;;;;;;;;;;4955060;29;20415;-79
2024/01/24 03:10:27;;;;;;;1.70;0.40;;;;;;;;;;4954886;29;20481;-79
2024/01/24 03:12:53;;;;;;;1.50;0.47;;;;;;;;;;4955078;28;20407;-79
2024/01/24 03:15:19;;;;;;;1.60;0.40;;;;;;;;;;4954724;29;20423;-79
2024/01/24 03:17:45;;;;;;;1.53;0.20;;;;;;;;;;4954593;28;20497;-79
2024/01/24 03:20:13;;;;;;;2.00;0.40;;;;;;;;;;4954461;29;20444;-80
2024/01/24 03:22:39;;;;;;;3.30;0.40;;;;;;;;;;4954596;28;20489;-79
2024/01/24 03:25:06;;;;;;;0.90;0.20;;;;;;;;;;4954069;28;20414;-79
2024/01/24 03:27:32;;;;;;;1.23;0.47;;;;;;;;;;4953755;28;20435;-81
2024/01/24 03:29:58;;;;;;;1.20;0.60;;;;;;;;;;4954072;29;20451;-79
2024/01/24 03:32:24;;;;;;;2.40;0.23;;;;;;;;;;4954532;28;20963;-79
2024/01/24 03:34:56;;;;;;;1.40;0.50;;;;;;;;;;4953756;28;21046;-84
2024/01/24 03:37:22;;;;;;;1.53;0.43;;;;;;;;;;4952381;28;20454;-80
2024/01/24 03:39:48;;;;;;;1.80;0.40;;;;;;;;;;4954429;28;20451;-79
2024/01/24 03:42:14;;;;;;;1.43;0.73;;;;;;;;;;4954318;28;20506;-79
2024/01/24 03:44:40;;;;;;;2.00;1.07;;;;;;;;;;4954460;28;20454;-78
2024/01/24 03:47:06;;;;;;;2.20;0.50;;;;;;;;;;4954403;28;20412;-79
2024/01/24 03:49:32;;;;;;;1.27;0.70;;;;;;;;;;4954503;28;20415;-79
2024/01/24 03:51:58;;;;;;;2.10;0.37;;;;;;;;;;4954426;29;21001;-78
2024/01/24 03:54:24;;;;;;;1.73;0.70;;;;;;;;;;4953189;29;20507;-79
2024/01/24 03:56:50;;;;;;;3.40;0.60;;;;;;;;;;4954284;28;20429;-81
2024/01/24 03:59:16;;;;;;;2.40;0.80;;;;;;;;;;4953098;29;20848;-85
2024/01/24 04:01:42;;;;;;;5.57;0.80;;;;;;;;;;4954268;29;20486;-79
2024/01/24 04:04:08;;;;;;;1.10;0.40;;;;;;;;;;4954137;28;20442;-79
2024/01/24 04:06:34;;;;;;;1.63;0.40;;;;;;;;;;4953825;28;20871;-79
2024/01/24 04:09:00;;;;;;;3.47;0.60;;;;;;;;;;4954302;28;20415;-81
2024/01/24 04:11:26;;;;;;;2.77;0.43;;;;;;;;;;4954205;29;20917;-79
2024/01/24 04:14:04;;;;;;;5.30;0.30;;;;;;;;;;4954098;28;20461;-79
2024/01/24 04:16:30;;;;;;;3.60;0.53;;;;;;;;;;4953986;28;20660;-78
2024/01/24 04:18:56;;;;;;;2.10;0.30;;;;;;;;;;4954213;28;20429;-80
2024/01/24 04:21:25;;;;;;;5.20;0.60;;;;;;;;;;4953978;28;20271;-78
2024/01/24 04:23:51;;;;;;;1.53;0.20;;;;;;;;;;4913104;28;20936;-80
2024/01/24 04:26:21;;;;;;;3.80;0.30;;;;;;;;;;4954202;28;20417;-79
2024/01/24 04:28:47;;;;;;;2.90;0.40;;;;;;;;;;4954268;28;20496;-81
2024/01/24 04:31:14;;;;;;;2.40;0.30;;;;;;;;;;4953969;28;20410;-80
2024/01/24 04:33:39;;;;;;;5.33;0.50;;;;;;;;;;4953959;29;20183;-82
2024/01/24 04:36:06;;;;;;;5.50;0.97;;;;;;;;;;4952486;28;20426;-79
2024/01/24 04:38:31;;;;;;;6.00;0.30;;;;;;;;;;4957425;28;20172;-80
2024/01/24 04:40:57;;;;;;;2.80;0.20;;;;;;;;;;4957251;29;20463;-79
2024/01/24 04:43:23;;;;;;;5.30;0.83;;;;;;;;;;4957491;28;20663;-79
2024/01/24 04:45:49;;;;;;;1.80;0.33;;;;;;;;;;4957247;28;20184;-79
2024/01/24 04:48:15;;;;;;;6.00;0.67;;;;;;;;;;4957201;28;20431;-79
2024/01/24 04:50:41;;;;;;;5.63;1.07;;;;;;;;;;4956890;28;20414;-79
2024/01/24 04:53:07;;;;;;;7.73;0.50;;;;;;;;;;4967212;28;20183;-78
2024/01/24 04:55:33;;;;;;;3.00;0.37;;;;;;;;;;4957987;28;20423;-79
2024/01/24 04:57:59;;;;;;;5.23;0.50;;;;;;;;;;4956985;29;20193;-78
2024/01/24 05:00:25;;;;;;;8.93;0.83;;;;;;;;;;4955694;28;20425;-78
2024/01/24 05:02:51;;;;;;;4.73;0.90;;;;;;;;;;4957019;28;20249;-79
2024/01/24 05:05:16;;;;;;;9.67;1.03;;;;;;;;;;4956778;28;20448;-78
2024/01/24 05:07:42;;;;;;;8.43;1.40;;;;;;;;;;4956880;28;20979;-79
2024/01/24 05:10:08;;;;;;;11.40;2.07;;;;;;;;;;4956806;28;20904;-78
2024/01/24 05:12:34;;;;;;;12.93;1.27;;;;;;;;;;4956779;28;20508;-78
2024/01/24 05:15:00;;;;;;;12.23;2.67;;;;;;;;;;4956873;28;20963;-79
2024/01/24 05:17:26;;;;;;;10.60;1.50;;;;;;;;;;4955385;29;20354;-79
2024/01/24 05:19:52;;;;;;;13.07;1.20;;;;;;;;;;4956214;29;20896;-78
2024/01/24 05:22:18;;;;;;;11.83;2.43;;;;;;;;;;4956513;29;20474;-81
2024/01/24 05:24:45;;;;;;;12.77;1.93;;;;;;;;;;4956412;29;20199;-78
2024/01/24 05:27:11;;;;;;;16.93;1.53;;;;;;;;;;4956426;28;20432;-78
2024/01/24 05:29:37;;;;;;;18.00;1.30;;;;;;;;;;4956537;28;20805;-78
2024/01/24 05:32:03;;;;;;;10.83;1.50;;;;;;;;;;4955284;28;20432;-80
2024/01/24 05:34:29;;;;;;;15.97;2.30;;;;;;;;;;4956136;28;20435;-79
2024/01/24 05:36:55;;;;;;;11.23;1.73;;;;;;;;;;4956459;28;20754;-79
2024/01/24 05:39:21;;;;;;;12.27;1.97;;;;;;;;;;4956312;28;20427;-80
2024/01/24 05:41:47;;;;;;;13.67;1.97;;;;;;;;;;4956724;28;20700;-80
2024/01/24 05:44:12;;;;;;;11.00;1.53;;;;;;;;;;4956562;28;20501;-79
2024/01/24 05:46:38;;;;;;;16.87;3.10;;;;;;;;;;4956393;28;20428;-79
2024/01/24 05:49:07;;;;;;;16.27;2.87;;;;;;;;;;4955285;28;20426;-88
2024/01/24 05:51:33;;;;;;;12.73;1.73;;;;;;;;;;4955987;29;20252;-78
2024/01/24 05:53:59;;;;;;;15.10;1.87;;;;;;;;;;4956959;28;20946;-82
2024/01/24 05:56:25;;;;;;;10.23;1.90;;;;;;;;;;4915920;28;20532;-79
2024/01/24 05:58:51;;;;;;;8.33;1.20;;;;;;;;;;4953386;28;20435;-85
2024/01/24 06:01:17;;;;;;;12.07;2.57;;;;;;;;;;4955942;28;20440;-84
2024/01/24 06:03:43;;;;;;;14.67;2.90;;;;;;;;;;4955934;29;20421;-79
2024/01/24 06:06:09;;;;;;;10.47;2.07;;;;;;;;;;4955557;28;20934;-79
2024/01/24 06:08:35;;;;;;;8.30;1.40;;;;;;;;;;4955789;28;20586;-79
2024/01/24 06:11:01;;;;;;;14.73;1.97;;;;;;;;;;4955752;28;20527;-78
2024/01/24 06:13:27;;;;;;;16.30;2.77;;;;;;;;;;4955804;28;20421;-79
2024/01/24 06:15:53;;;;;;;13.00;2.27;;;;;;;;;;4955336;29;20968;-79
2024/01/24 06:18:19;;;;;;;10.83;2.10;;;;;;;;;;4955497;29;20415;-79
2024/01/24 06:20:48;;;;;;;14.33;1.93;;;;;;;;;;4955046;28;20424;-80
2024/01/24 06:23:14;;;;;;;11.87;2.60;;;;;;;;;;4955058;28;20470;-79
2024/01/24 06:25:40;;;;;;;9.67;1.87;;;;;;;;;;4955410;28;20466;-79
2024/01/24 06:28:06;;;;;;;10.93;2.00;;;;;;;;;;4955285;28;20975;-79
2024/01/24 06:30:32;;;;;;;8.27;2.20;;;;;;;;;;4955110;28;20411;-80
2024/01/24 06:32:58;;;;;;;8.70;1.50;;;;;;;;;;4955545;28;20961;-79
2024/01/24 06:35:24;;;;;;;13.10;1.90;;;;;;;;;;4954921;29;20909;-78
2024/01/24 06:37:51;;;;;;;10.70;2.40;;;;;;;;;;4955297;28;20181;-79
2024/01/24 06:40:20;;;;;;;14.50;2.17;;;;;;;;;;4970105;28;20805;-80
2024/01/24 06:42:46;;;;;;;13.77;2.00;;;;;;;;;;4955067;29;20477;-79
2024/01/24 06:45:12;;;;;;;6.63;1.27;;;;;;;;;;4955060;28;20410;-79
2024/01/24 06:47:39;;;;;;;9.03;1.70;;;;;;;;;;4955033;28;20426;-79
2024/01/24 06:50:09;;;;;;;14.37;1.40;;;;;;;;;;4954696;29;20894;-78
2024/01/24 06:52:35;;;;;;;9.80;1.50;;;;;;;;;;4953721;28;20432;-80
2024/01/24 06:55:02;;;;;;;12.77;2.00;;;;;;;;;;4954916;28;20437;-80
2024/01/24 06:57:28;;;;;;;14.40;1.77;;;;;;;;;;4954898;29;20995;-78
2024/01/24 06:59:54;;;;;;;11.17;3.30;;;;;;;;;;4954821;28;20426;-79
2024/01/24 07:02:19;;;;;;;14.87;2.33;;;;;;;;;;4955194;28;20218;-78
2024/01/24 07:04:45;;;;;;;13.70;2.23;;;;;;;;;;4954828;29;20175;-80
2024/01/24 07:07:14;;;;;;;7.03;1.50;;;;;;;;;;4955290;29;20189;-79
2024/01/24 07:09:40;;;;;;;16.93;2.30;;;;;;;;;;4955202;29;20858;-80
2024/01/24 07:12:06;;;;;;;14.27;2.53;;;;;;;;;;4954083;28;20488;-80
2024/01/24 07:14:33;;;;;;;16.37;2.43;;;;;;;;;;4955142;28;20783;-79
2024/01/24 07:17:00;;;;;;;10.67;1.90;;;;;;;;;;4954906;28;20878;-83
2024/01/24 07:19:26;;;;;;;18.67;3.70;;;;;;;;;;4954696;29;20423;-80
2024/01/24 07:21:51;;;;;;;20.43;4.20;;;;;;;;;;4954889;29;20897;-79
2024/01/24 07:24:17;;;;;;;12.70;3.13;;;;;;;;;;4948712;28;20911;-79
2024/01/24 07:26:43;;;;;;;19.87;4.53;;;;;;;;;;4919899;28;20438;-79
2024/01/24 07:29:10;;;;;;;15.07;2.23;;;;;;;;;;4955034;28;20477;-80
2024/01/24 07:31:36;;;;;;;17.40;3.40;;;;;;;;;;4955172;28;20938;-81
2024/01/24 07:34:02;;;;;;;16.23;2.93;;;;;;;;;;4954651;28;20420;-81
2024/01/24 07:36:28;;;;;;;16.43;2.63;;;;;;;;;;4955041;28;20492;-80
2024/01/24 07:38:54;;;;;;;15.77;4.00;;;;;;;;;;4969865;28;20465;-83
2024/01/24 07:41:20;;;;;;;16.83;4.37;;;;;;;;;;4954787;28;20445;-80
2024/01/24 07:43:46;;;;;;;19.03;3.63;;;;;;;;;;4954788;28;20693;-79
2024/01/24 07:46:12;;;;;;;19.10;4.67;;;;;;;;;;4954819;28;20178;-80
2024/01/24 07:48:38;;;;;;;18.53;2.47;;;;;;;;;;4969134;28;20488;-80
2024/01/24 07:51:05;;;;;;;19.50;4.50;;;;;;;;;;4954876;28;20173;-78
2024/01/24 07:53:31;;;;;;;23.90;3.50;;;;;;;;;;4954866;28;20746;-79
2024/01/24 07:55:57;;;;;;;16.20;2.80;;;;;;;;;;4954770;28;20454;-79
2024/01/24 07:58:23;;;;;;;19.40;3.70;;;;;;;;;;4954706;28;20413;-79
2024/01/24 08:00:49;;;;;;;18.80;4.10;;;;;;;;;;4954806;28;20432;-79
2024/01/24 08:03:16;;;;;;;16.43;3.00;;;;;;;;;;4969454;28;20480;-80
2024/01/24 08:05:43;;;;;;;23.07;3.27;;;;;;;;;;4969056;28;20410;-81
2024/01/24 08:08:09;;;;;;;14.87;3.30;;;;;;;;;;4969730;28;20831;-80
2024/01/24 08:10:35;;;;;;;15.73;3.90;;;;;;;;;;4954668;28;20508;-80
2024/01/24 08:13:04;;;;;;;14.20;3.30;;;;;;;;;;4972528;28;20428;-80
2024/01/24 08:15:30;;;;;;;18.90;3.50;;;;;;;;;;4958448;28;20427;-80
2024/01/24 08:17:58;;;;;;;14.17;3.37;;;;;;;;;;4972955;28;20958;-79
2024/01/24 08:20:25;;;;;;;23.67;3.37;;;;;;;;;;4958018;28;20182;-82
2024/01/24 08:22:51;;;;;;;20.27;3.40;;;;;;;;;;4958103;28;20516;-80
2024/01/24 08:25:17;;;;;;;18.10;3.20;;;;;;;;;;4958099;28;20755;-79
2024/01/24 08:27:43;;;;;;;29.73;5.87;;;;;;;;;;4973130;28;20513;-81
2024/01/24 08:30:10;;;;;;;21.20;3.90;;;;;;;;;;4972978;28;20416;-79
2024/01/24 08:32:40;;;;;;;17.43;2.97;;;;;;;;;;4959620;28;20421;-92
2024/01/24 08:35:06;;;;;;;18.90;4.67;;;;;;;;;;4959015;28;20398;-88
2024/01/24 08:37:32;;;;;;;19.03;3.90;;;;;;;;;;4960095;28;20433;-91
2024/01/24 08:39:59;;;;;;;11.90;2.17;;;;;;;;;;4959867;28;21034;-89
2024/01/24 08:42:25;;;;;;;23.27;4.23;;;;;;;;;;4976935;28;20539;-94
2024/01/24 08:44:51;;;;;;;16.73;4.00;;;;;;;;;;4951209;28;20819;-90
2024/01/24 08:47:17;;;;;;;21.13;5.17;;;;;;;;;;4960963;28;20484;-87
2024/01/24 08:49:43;;;;;;;19.87;4.50;;;;;;;;;;4960172;28;20923;-82
2024/01/24 08:52:09;;;;;;;21.70;4.00;;;;;;;;;;4924033;28;20438;-80
2024/01/24 08:54:35;;;;;;;22.97;3.73;;;;;;;;;;4953296;28;20220;-91
2024/01/24 08:57:01;;;;;;;21.53;4.50;;;;;;;;;;4958088;29;20430;-80
2024/01/24 08:59:26;;;;;;;16.83;3.90;;;;;;;;;;4958081;29;20271;-93
2024/01/24 09:01:55;;;;;;;12.27;2.93;;;;;;;;;;4958082;29;20473;-87
2024/01/24 09:04:21;;;;;;;18.43;3.47;;;;;;;;;;4956927;29;20418;-81
2024/01/24 09:06:47;;;;;;;20.27;2.90;;;;;;;;;;4957263;29;20926;-85
2024/01/24 09:09:19;;;;;;;16.63;3.60;;;;;;;;;;4957593;28;20509;-89
2024/01/24 09:11:45;;;;;;;17.63;4.03;;;;;;;;;;4956961;29;20178;-81
2024/01/24 09:14:11;;;;;;;17.90;3.40;;;;;;;;;;4956883;28;20778;-81
2024/01/24 09:16:37;;;;;;;10.97;2.77;;;;;;;;;;4956438;28;20461;-81
2024/01/24 09:19:03;;;;;;;16.00;3.27;;;;;;;;;;4956689;28;20253;-80
2024/01/24 09:21:29;;;;;;;14.27;3.10;;;;;;;;;;4956881;28;20542;-86
2024/01/24 09:23:54;;;;;;;15.33;3.17;;;;;;;;;;4954662;28;20476;-79
2024/01/24 09:26:20;;;;;;;13.67;4.40;;;;;;;;;;4959534;29;20457;-87
2024/01/24 09:28:46;;;;;;;16.83;3.93;;;;;;;;;;4959743;28;20909;-79
2024/01/24 09:31:12;;;;;;;23.47;4.60;;;;;;;;;;4959915;29;20417;-84
2024/01/24 09:33:38;;;;;;;19.83;3.23;;;;;;;;;;4958835;28;20437;-80
2024/01/24 09:36:04;;;;;;;18.33;3.03;;;;;;;;;;4959252;28;20426;-78
2024/01/24 09:38:30;;;;;;;22.83;4.60;;;;;;;;;;4958991;29;20433;-84
2024/01/24 09:41:01;;;;;;;22.20;4.53;;;;;;;;;;4960705;29;20423;-81
2024/01/24 09:43:32;;;;;;;23.83;3.80;;;;;;;;;;4957938;29;20473;-81
2024/01/24 09:46:00;;;;;;;16.70;2.83;;;;;;;;;;4957478;29;20447;-80
2024/01/24 09:48:29;;;;;;;24.20;5.20;;;;;;;;;;4957372;28;21493;-83
2024/01/24 09:50:55;;;;;;;12.67;3.50;;;;;;;;;;4959778;28;20425;-81
2024/01/24 09:53:21;;;;;;;18.53;3.87;;;;;;;;;;4956430;28;20423;-81
2024/01/24 09:55:48;;;;;;;15.50;3.07;;;;;;;;;;4956131;29;20418;-80
2024/01/24 09:58:14;;;;;;;18.40;2.90;;;;;;;;;;4956095;28;20421;-82
2024/01/24 10:00:41;;;;;;;18.03;4.37;;;;;;;;;;4933577;28;20450;-78
2024/01/24 10:03:07;;;;;;;14.90;3.20;;;;;;;;;;4935838;28;21022;-79
2024/01/24 10:05:35;;;;;;;16.47;3.00;;;;;;;;;;4954677;28;20430;-79
2024/01/24 10:08:01;;;;;;;17.20;3.50;;;;;;;;;;4956374;28;20422;-81
2024/01/24 10:10:27;;;;;;;18.77;3.37;;;;;;;;;;4955046;29;20429;-79
2024/01/24 10:12:53;;;;;;;19.97;4.30;;;;;;;;;;4956126;28;20426;-79
2024/01/24 10:15:20;;;;;;;24.73;5.17;;;;;;;;;;4956167;28;20473;-86
2024/01/24 10:17:46;;;;;;;25.80;5.93;;;;;;;;;;4955908;28;20551;-81
2024/01/24 10:20:12;;;;;;;11.80;2.63;;;;;;;;;;4955739;28;20505;-79
2024/01/24 10:22:39;;;;;;;15.90;3.50;;;;;;;;;;4955898;29;20482;-83
2024/01/24 10:25:05;;;;;;;25.20;4.33;;;;;;;;;;4955844;29;20410;-84
2024/01/24 10:27:34;;;;;;;15.57;3.17;;;;;;;;;;4955573;28;20422;-83
2024/01/24 10:30:00;;;;;;;12.73;2.60;;;;;;;;;;4955970;28;20406;-81
2024/01/24 10:32:26;;;;;;;20.10;4.40;;;;;;;;;;4955895;29;20405;-79
2024/01/24 10:34:52;;;;;;;19.93;2.93;;;;;;;;;;4955292;28;20413;-79
2024/01/24 10:37:18;;;;;;;17.07;3.83;;;;;;;;;;4955830;29;20441;-80
2024/01/24 10:39:44;;;;;;;23.43;4.27;;;;;;;;;;4955306;29;20411;-79
2024/01/24 10:42:10;;;;;;;23.43;4.30;;;;;;;;;;4954388;28;20480;-79
2024/01/24 10:44:37;;;;;;;17.17;3.70;;;;;;;;;;4955831;28;20432;-78
2024/01/24 10:47:03;;;;;;;20.67;3.50;;;;;;;;;;4955660;28;20407;-81
2024/01/24 10:49:30;;;;;;;25.67;4.30;;;;;;;;;;4955267;29;20423;-84
2024/01/24 10:51:56;;;;;;;15.90;3.20;;;;;;;;;;4955513;29;20446;-80
2024/01/24 10:54:22;;;;;;;22.90;3.77;;;;;;;;;;4955705;29;20445;-82
2024/01/24 10:56:50;;;;;;;21.70;3.50;;;;;;;;;;4955392;28;20426;-78
2024/01/24 10:59:17;;;;;;;16.83;3.37;;;;;;;;;;4954975;29;20415;-81
2024/01/24 11:01:43;;;;;;;15.97;2.63;;;;;;;;;;4907940;28;20996;-81
2024/01/24 11:04:10;;;;;;;22.57;3.17;;;;;;;;;;4952187;29;20426;-82
2024/01/24 11:06:38;;;;;;;13.17;2.50;;;;;;;;;;4954639;28;20491;-79
2024/01/24 11:09:10;;;;;;;22.60;3.80;;;;;;;;;;4954218;28;20938;-79
2024/01/24 11:11:38;;;;;;;20.67;3.80;;;;;;;;;;4953847;28;20493;-83
2024/01/24 11:14:04;;;;;;;16.50;4.17;;;;;;;;;;4953597;29;20422;-80
2024/01/24 11:16:31;;;;;;;20.83;4.77;;;;;;;;;;4953461;29;20802;-84
2024/01/24 11:19:19;;;;;;;21.43;5.33;;;;;;;;;;4954405;28;20517;-79
2024/01/24 11:21:45;;;;;;;27.07;4.20;;;;;;;;;;4954520;28;20465;-82
2024/01/24 11:24:10;;;;;;;19.00;3.40;;;;;;;;;;4954634;28;20421;-83
2024/01/24 11:26:39;;;;;;;20.37;3.03;;;;;;;;;;4954785;28;20185;-79
2024/01/24 11:29:12;;;;;;;18.33;3.30;;;;;;;;;;4954624;28;20447;-79
2024/01/24 11:31:39;;;;;;;15.70;3.90;;;;;;;;;;4954636;28;20940;-83
2024/01/24 11:34:08;;;;;;;17.03;3.80;;;;;;;;;;4954318;28;21103;-81
2024/01/24 11:36:43;;;;;;;17.33;3.67;;;;;;;;;;4954715;28;20421;-85
2024/01/24 11:39:27;;;;;;;22.93;4.83;;;;;;;;;;4954582;28;20448;-83
2024/01/24 11:41:54;;;;;;;19.87;3.33;;;;;;;;;;4954572;29;20468;-82
2024/01/24 11:44:20;;;;;;;19.60;3.97;;;;;;;;;;4954317;28;20933;-84
2024/01/24 11:46:46;;;;;;;15.67;2.40;;;;;;;;;;4955177;28;20425;-79
2024/01/24 11:49:12;;;;;;;19.80;3.80;;;;;;;;;;4958271;28;20932;-83
2024/01/24 11:51:38;;;;;;;23.03;4.90;;;;;;;;;;4958623;28;20917;-86
2024/01/24 11:54:04;;;;;;;17.07;2.50;;;;;;;;;;4958681;28;20424;-85
2024/01/24 11:56:34;;;;;;;18.03;3.97;;;;;;;;;;4958747;29;20414;-83
2024/01/24 11:59:00;;;;;;;19.93;3.87;;;;;;;;;;4958767;28;20418;-86
2024/01/24 12:01:26;;;;;;;19.50;4.87;;;;;;;;;;4957092;28;20456;-86
2024/01/24 12:03:52;;;;;;;16.93;3.80;;;;;;;;;;4958388;28;20859;-87
2024/01/24 12:06:18;;;;;;;23.87;5.37;;;;;;;;;;4958526;28;20839;-84
2024/01/24 12:08:47;;;;;;;29.77;5.23;;;;;;;;;;4958394;28;20470;-85
2024/01/24 12:11:13;;;;;;;21.80;4.90;;;;;;;;;;4958459;28;20793;-86
2024/01/24 12:13:39;;;;;;;19.47;4.30;;;;;;;;;;4958533;28;20897;-86
2024/01/24 12:16:08;;;;;;;23.80;4.23;;;;;;;;;;4958113;28;20421;-87
2024/01/24 12:18:35;;;;;;;15.43;3.33;;;;;;;;;;4958361;28;20424;-87
2024/01/24 12:21:05;;;;;;;22.53;5.07;;;;;;;;;;4958395;28;20773;-84
2024/01/24 12:23:33;;;;;;;14.37;4.07;;;;;;;;;;5018126;23;20975;-82
2024/01/24 12:25:59;;;;;;;22.77;5.03;;;;;;;;;;4961680;28;20772;-84
2024/01/24 12:28:25;;;;;;;15.70;3.93;;;;;;;;;;4960255;28;20934;-79
2024/01/24 12:30:53;;;;;;;20.47;5.50;;;;;;;;;;4956861;28;20495;-80
2024/01/24 12:33:19;;;;;;;22.37;3.57;;;;;;;;;;4956401;28;20457;-84
2024/01/24 12:35:46;;;;;;;24.53;5.50;;;;;;;;;;4956739;29;20465;-85
2024/01/24 12:38:12;;;;;;;19.70;3.80;;;;;;;;;;4957974;28;20452;-87
2024/01/24 12:40:38;;;;;;;30.53;4.50;;;;;;;;;;4958069;28;20461;-81
2024/01/24 12:43:04;;;;;;;19.30;4.17;;;;;;;;;;4957932;29;20479;-81
2024/01/24 12:45:30;;;;;;;14.50;2.80;;;;;;;;;;4957984;29;20531;-79
2024/01/24 12:47:59;;;;;;;34.30;4.30;;;;;;;;;;4956189;28;20435;-81
2024/01/24 12:50:25;;;;;;;24.90;5.10;;;;;;;;;;4957582;28;21051;-81
2024/01/24 12:52:51;;;;;;;22.50;4.43;;;;;;;;;;4956935;28;20429;-80
2024/01/24 12:55:16;;;;;;;25.10;4.00;;;;;;;;;;4957762;28;20417;-86
2024/01/24 12:57:44;;;;;;;32.23;4.97;;;;;;;;;;4957409;28;20491;-87
2024/01/24 13:00:11;;;;;;;26.53;3.97;;;;;;;;;;4957509;29;20420;-81
2024/01/24 13:02:37;;;;;;;26.00;5.10;;;;;;;;;;4957315;28;20475;-87
2024/01/24 13:05:04;;;;;;;25.43;3.80;;;;;;;;;;4957147;28;20432;-80
2024/01/24 13:07:31;;;;;;;20.60;4.50;;;;;;;;;;4957390;29;20913;-79
2024/01/24 13:09:57;;;;;;;26.20;5.37;;;;;;;;;;4959012;28;20426;-85
2024/01/24 13:12:24;;;;;;;25.37;4.77;;;;;;;;;;4930652;28;20439;-77
2024/01/24 13:14:50;;;;;;;20.27;3.57;;;;;;;;;;4929473;29;20438;-88
2024/01/24 13:17:18;;;;;;;23.30;5.03;;;;;;;;;;4942861;29;20418;-82
2024/01/24 13:19:44;;;;;;;31.73;4.63;;;;;;;;;;4939775;29;20441;-85
2024/01/24 13:22:10;;;;;;;29.73;4.83;;;;;;;;;;4956162;28;20571;-80
2024/01/24 13:24:36;;;;;;;22.93;4.37;;;;;;;;;;4941167;29;20447;-86
2024/01/24 13:27:05;;;;;;;20.33;3.60;;;;;;;;;;4939849;29;20409;-84
2024/01/24 13:29:32;;;;;;;27.37;4.90;;;;;;;;;;4939745;29;20904;-82
2024/01/24 13:31:58;;;;;;;22.67;4.53;;;;;;;;;;4939811;29;20406;-83
2024/01/24 13:34:24;;;;;;;24.47;5.17;;;;;;;;;;4939325;29;20410;-80
2024/01/24 13:36:50;;;;;;;25.23;3.73;;;;;;;;;;4939520;28;20481;-84
2024/01/24 13:39:16;;;;;;;29.60;5.87;;;;;;;;;;4940536;28;20421;-80
2024/01/24 13:41:45;;;;;;;19.70;4.00;;;;;;;;;;4947095;29;20565;-84
2024/01/24 13:44:14;;;;;;;18.30;3.70;;;;;;;;;;4957907;28;20425;-78
2024/01/24 13:46:40;;;;;;;14.60;3.70;;;;;;;;;;4958372;28;20499;-81
2024/01/24 13:49:09;;;;;;;38.00;5.40;;;;;;;;;;4958419;28;20417;-80
2024/01/24 13:51:35;;;;;;;30.13;4.57;;;;;;;;;;4957457;28;20425;-83
2024/01/24 13:54:02;;;;;;;25.47;5.60;;;;;;;;;;4957029;29;20420;-79
2024/01/24 13:56:28;;;;;;;17.43;4.30;;;;;;;;;;4958751;29;20432;-85
2024/01/24 13:58:54;;;;;;;17.97;3.40;;;;;;;;;;5041607;23;20500;-81
2024/01/24 14:01:20;;;;;;;25.23;5.03;;;;;;;;;;4959508;28;20427;-80
2024/01/24 14:03:47;;;;;;;17.63;6.20;;;;;;;;;;4956509;28;20491;-85
2024/01/24 14:06:13;;;;;;;28.73;5.17;;;;;;;;;;4956315;28;20418;-81
2024/01/24 14:08:40;;;;;;;33.87;8.23;;;;;;;;;;4955860;28;20913;-83
2024/01/24 14:11:10;;;;;;;24.80;5.63;;;;;;;;;;4955402;28;20511;-83
2024/01/24 14:13:37;;;;;;;31.20;6.27;;;;;;;;;;4942192;28;20429;-79
2024/01/24 14:16:04;;;;;;;26.10;4.07;;;;;;;;;;4943190;28;20425;-85
2024/01/24 14:18:30;;;;;;;19.90;4.93;;;;;;;;;;4959514;28;20413;-82
2024/01/24 14:20:56;;;;;;;24.10;5.10;;;;;;;;;;4962313;28;20424;-86
2024/01/24 14:23:22;;;;;;;28.07;6.90;;;;;;;;;;4956467;28;20974;-82
2024/01/24 14:25:48;;;;;;;31.20;5.83;;;;;;;;;;4956327;28;20413;-83
2024/01/24 14:28:18;;;;;;;26.13;4.93;;;;;;;;;;4955952;28;20421;-81
2024/01/24 14:30:44;;;;;;;26.03;6.47;;;;;;;;;;4955912;28;20440;-85
2024/01/24 14:33:10;;;;;;;25.07;5.60;;;;;;;;;;4955526;28;20413;-86